createdAt,value
2022-12-26T00:01:45.644Z,3.28
2022-12-26T00:04:48.517Z,3.40
2022-12-26T00:07:07.509Z,2.85
2022-12-26T00:09:37.127Z,2.63
2022-12-26T00:12:06.900Z,3.50
2022-12-26T00:14:36.474Z,3.78
2022-12-26T00:17:05.933Z,5.45
2022-12-26T00:19:35.530Z,3.35
2022-12-26T00:22:07.640Z,3.08
2022-12-26T00:24:37.142Z,2.65
2022-12-26T00:27:06.706Z,2.67
2022-12-26T00:29:36.255Z,2.38
2022-12-26T00:32:05.860Z,3.03
2022-12-26T00:34:35.420Z,2.40
2022-12-26T00:37:07.999Z,2.63
2022-12-26T00:39:37.503Z,2.53
2022-12-26T00:42:07.007Z,2.50
2022-12-26T00:44:36.474Z,2.08
2022-12-26T00:47:06.008Z,3.17
2022-12-26T00:50:13.575Z,2.47
2022-12-26T00:52:30.605Z,2.50
2022-12-26T00:55:00.240Z,3.20
2022-12-26T00:57:29.804Z,3.20
2022-12-26T00:59:59.331Z,3.47
2022-12-26T01:02:41.220Z,3.20
2022-12-26T01:05:11.849Z,2.67
2022-12-26T01:08:23.409Z,2.75
2022-12-26T01:10:33.696Z,2.65
2022-12-26T01:13:03.199Z,3.47
2022-12-26T01:15:33.848Z,3.05
2022-12-26T01:18:03.629Z,3.13
2022-12-26T01:20:34.609Z,3.28
2022-12-26T01:23:06.912Z,2.90
2022-12-26T01:25:36.449Z,3.20
2022-12-26T01:28:26.021Z,2.95
2022-12-26T01:30:55.545Z,2.65
2022-12-26T01:33:25.120Z,2.22
2022-12-26T01:35:55.593Z,2.95
2022-12-26T01:38:27.773Z,2.35
2022-12-26T01:41:17.193Z,1.88
2022-12-26T01:43:50.529Z,2.25
2022-12-26T01:46:20.999Z,2.80
2022-12-26T01:48:50.812Z,3.22
2022-12-26T01:51:21.980Z,3.50
2022-12-26T01:54:40.176Z,2.85
2022-12-26T01:56:48.221Z,2.63
2022-12-26T01:59:20.534Z,2.78
2022-12-26T02:01:51.342Z,2.03
2022-12-26T02:04:36.803Z,3.03
2022-12-26T02:07:07.027Z,2.22
2022-12-26T02:09:39.808Z,2.35
2022-12-26T02:12:35.175Z,2.20
2022-12-26T02:15:02.582Z,3.00
2022-12-26T02:17:32.711Z,2.38
2022-12-26T02:20:05.360Z,2.40
2022-12-26T02:22:48.287Z,2.80
2022-12-26T02:25:31.192Z,2.42
2022-12-26T02:28:10.354Z,4.88
2022-12-26T02:30:46.496Z,2.80
2022-12-26T02:33:29.360Z,2.42
2022-12-26T02:36:14.654Z,2.10
2022-12-26T02:38:50.399Z,2.70
2022-12-26T02:41:26.538Z,2.22
2022-12-26T02:44:29.131Z,2.30
2022-12-26T02:47:05.597Z,4.53
2022-12-26T02:50:03.398Z,2.03
2022-12-26T02:52:46.339Z,2.10
2022-12-26T02:55:30.782Z,2.45
2022-12-26T02:58:16.932Z,1.73
2022-12-26T03:01:00.831Z,2.25
2022-12-26T03:03:46.471Z,2.00
2022-12-26T03:06:29.580Z,1.95
2022-12-26T03:09:18.857Z,3.08
2022-12-26T03:12:03.247Z,2.00
2022-12-26T03:14:34.775Z,2.17
2022-12-26T03:17:18.865Z,2.55
2022-12-26T03:20:02.258Z,4.03
2022-12-26T03:22:38.876Z,2.67
2022-12-26T03:25:22.962Z,1.77
2022-12-26T03:27:52.590Z,2.15
2022-12-26T03:30:34.505Z,2.42
2022-12-26T03:33:04.237Z,2.20
2022-12-26T03:35:34.408Z,2.55
2022-12-26T03:38:07.819Z,3.28
2022-12-26T03:41:04.671Z,2.08
2022-12-26T03:43:52.259Z,2.17
2022-12-26T03:46:39.672Z,2.70
2022-12-26T03:49:23.356Z,2.40
2022-12-26T03:52:11.269Z,2.42
2022-12-26T03:54:56.731Z,1.98
2022-12-26T03:57:40.843Z,2.35
2022-12-26T04:00:24.028Z,2.13
2022-12-26T04:03:07.917Z,1.95
2022-12-26T04:05:50.835Z,2.10
2022-12-26T04:08:47.881Z,3.15
2022-12-26T04:11:30.724Z,2.22
2022-12-26T04:14:17.103Z,1.90
2022-12-26T04:17:01.198Z,2.65
2022-12-26T04:19:42.568Z,2.38
2022-12-26T04:22:26.433Z,2.53
2022-12-26T04:25:13.054Z,2.47
2022-12-26T04:27:55.046Z,2.28
2022-12-26T04:30:36.984Z,3.00
2022-12-26T04:33:21.577Z,2.22
2022-12-26T04:36:06.022Z,3.65
2022-12-26T04:38:51.831Z,2.80
2022-12-26T04:41:37.180Z,2.70
2022-12-26T04:44:12.089Z,2.88
2022-12-26T04:46:42.468Z,2.70
2022-12-26T04:49:26.629Z,2.05
2022-12-26T04:51:57.710Z,2.35
2022-12-26T04:54:27.641Z,2.13
2022-12-26T04:56:59.686Z,2.38
2022-12-26T04:59:29.324Z,2.85
2022-12-26T05:02:11.321Z,2.45
2022-12-26T05:04:53.460Z,2.00
2022-12-26T05:07:36.472Z,2.13
2022-12-26T05:10:06.563Z,1.92
2022-12-26T05:12:38.625Z,2.35
2022-12-26T05:15:08.661Z,2.35
2022-12-26T05:17:50.502Z,1.90
2022-12-26T05:20:44.407Z,2.53
2022-12-26T05:23:29.205Z,2.00
2022-12-26T05:26:11.195Z,1.98
2022-12-26T05:28:46.231Z,2.83
2022-12-26T05:31:17.175Z,2.13
2022-12-26T05:33:59.215Z,1.80
2022-12-26T05:36:30.678Z,2.47
2022-12-26T05:39:00.748Z,3.05
2022-12-26T05:41:30.369Z,1.83
2022-12-26T05:44:02.459Z,1.70
2022-12-26T05:46:32.269Z,2.10
2022-12-26T05:49:02.295Z,1.77
2022-12-26T05:51:31.766Z,2.92
2022-12-26T05:54:01.278Z,2.22
2022-12-26T05:56:30.811Z,2.42
2022-12-26T05:59:03.634Z,2.60
2022-12-26T06:01:33.583Z,1.92
2022-12-26T06:04:03.235Z,2.63
2022-12-26T06:06:32.764Z,2.35
2022-12-26T06:09:02.268Z,3.20
2022-12-26T06:11:31.761Z,2.22
2022-12-26T06:14:04.878Z,2.20
2022-12-26T06:16:34.632Z,2.28
2022-12-26T06:19:04.105Z,2.33
2022-12-26T06:21:33.584Z,1.58
2022-12-26T06:24:03.069Z,3.45
2022-12-26T06:26:32.522Z,2.10
2022-12-26T06:29:04.736Z,2.20
2022-12-26T06:31:34.474Z,2.35
2022-12-26T06:34:04.122Z,5.43
2022-12-26T06:36:33.684Z,2.22
2022-12-26T06:39:03.515Z,2.10
2022-12-26T06:41:33.463Z,1.83
2022-12-26T06:44:05.501Z,2.20
2022-12-26T06:46:35.149Z,1.65
2022-12-26T06:49:06.617Z,5.78
2022-12-26T06:51:36.546Z,2.38
2022-12-26T06:54:06.082Z,3.40
2022-12-26T06:56:36.191Z,1.95
2022-12-26T06:59:08.988Z,2.35
2022-12-26T07:01:38.778Z,3.45
2022-12-26T07:04:08.471Z,1.85
2022-12-26T07:06:38.976Z,2.25
2022-12-26T07:09:09.881Z,2.15
2022-12-26T07:11:40.334Z,2.53
2022-12-26T07:14:12.444Z,4.95
2022-12-26T07:16:43.099Z,1.92
2022-12-26T07:19:13.224Z,2.17
2022-12-26T07:21:42.958Z,2.30
2022-12-26T07:24:16.673Z,2.88
2022-12-26T07:26:46.548Z,1.98
2022-12-26T07:29:18.883Z,1.95
2022-12-26T07:31:48.438Z,1.75
2022-12-26T07:34:18.210Z,2.50
2022-12-26T07:36:47.757Z,2.83
2022-12-26T07:39:17.386Z,2.30
2022-12-26T07:41:59.514Z,2.78
2022-12-26T07:44:32.522Z,3.30
2022-12-26T07:47:02.846Z,2.70
2022-12-26T07:49:32.688Z,2.83
2022-12-26T07:52:02.403Z,2.10
2022-12-26T07:54:32.725Z,2.55
2022-12-26T07:57:29.741Z,2.38
2022-12-26T07:59:54.328Z,3.67
2022-12-26T08:02:25.266Z,1.70
2022-12-26T08:04:55.087Z,2.40
2022-12-26T08:07:24.613Z,2.10
2022-12-26T08:09:54.128Z,1.90
2022-12-26T08:12:24.669Z,2.03
2022-12-26T08:14:56.992Z,2.15
2022-12-26T08:17:26.523Z,2.40
2022-12-26T08:19:55.992Z,2.85
2022-12-26T08:22:25.679Z,1.98
2022-12-26T08:24:55.246Z,2.55
2022-12-26T08:27:24.793Z,2.28
2022-12-26T08:29:56.944Z,2.38
2022-12-26T08:32:26.457Z,2.75
2022-12-26T08:34:56.272Z,2.10
2022-12-26T08:37:26.651Z,2.25
2022-12-26T08:39:56.378Z,2.00
2022-12-26T08:42:25.956Z,2.28
2022-12-26T08:44:58.072Z,4.10
2022-12-26T08:47:27.664Z,2.20
2022-12-26T08:49:57.092Z,2.60
2022-12-26T08:52:26.730Z,2.20
2022-12-26T08:54:56.213Z,2.63
2022-12-26T08:57:25.809Z,3.00
2022-12-26T08:59:58.206Z,3.75
2022-12-26T09:02:28.369Z,3.40
2022-12-26T09:04:57.973Z,4.10
2022-12-26T09:07:27.757Z,5.35
2022-12-26T09:09:58.262Z,2.63
2022-12-26T09:12:27.861Z,3.25
2022-12-26T09:14:59.963Z,3.58
2022-12-26T09:17:29.840Z,3.25
2022-12-26T09:19:59.338Z,2.88
2022-12-26T09:22:41.639Z,3.08
2022-12-26T09:25:12.666Z,6.57
2022-12-26T09:27:42.199Z,6.57
2022-12-26T09:30:14.758Z,3.47
2022-12-26T09:32:44.357Z,2.63
2022-12-26T09:35:13.820Z,2.83
2022-12-26T09:37:46.294Z,3.47
2022-12-26T09:40:22.903Z,2.60
2022-12-26T09:42:58.388Z,2.67
2022-12-26T09:45:35.271Z,2.22
2022-12-26T09:48:07.488Z,4.07
2022-12-26T09:50:42.933Z,3.50
2022-12-26T09:53:15.413Z,3.28
2022-12-26T09:55:47.578Z,3.78
2022-12-26T09:58:20.450Z,2.90
2022-12-26T10:00:55.617Z,2.70
2022-12-26T10:03:26.558Z,2.25
2022-12-26T10:06:04.215Z,2.50
2022-12-26T10:08:43.111Z,2.72
2022-12-26T10:11:18.103Z,2.72
2022-12-26T10:13:50.963Z,3.22
2022-12-26T10:16:27.180Z,4.97
2022-12-26T10:19:01.502Z,3.08
2022-12-26T10:21:36.376Z,3.55
2022-12-26T10:24:08.007Z,2.38
2022-12-26T10:26:40.226Z,2.92
2022-12-26T10:29:15.140Z,2.58
2022-12-26T10:31:49.023Z,3.28
2022-12-26T10:34:20.372Z,2.67
2022-12-26T10:36:51.068Z,4.05
2022-12-26T10:39:23.861Z,2.65
2022-12-26T10:41:55.021Z,3.17
2022-12-26T10:44:27.807Z,3.08
2022-12-26T10:47:05.921Z,2.30
2022-12-26T10:49:35.575Z,2.92
2022-12-26T10:52:05.941Z,3.10
2022-12-26T10:54:35.497Z,2.72
2022-12-26T10:57:05.000Z,3.13
2022-12-26T10:59:43.630Z,2.50
2022-12-26T11:02:31.053Z,3.10
2022-12-26T11:05:27.341Z,2.80
2022-12-26T11:07:58.326Z,2.55
2022-12-26T11:10:29.431Z,2.53
2022-12-26T11:13:00.864Z,2.42
2022-12-26T11:15:32.888Z,2.20
2022-12-26T11:18:11.310Z,2.90
2022-12-26T11:20:43.906Z,3.05
2022-12-26T11:23:31.843Z,3.33
2022-12-26T11:26:02.438Z,2.92
2022-12-26T11:28:33.356Z,2.38
2022-12-26T11:31:03.269Z,2.35
2022-12-26T11:33:34.021Z,2.50
2022-12-26T11:36:11.851Z,2.35
2022-12-26T11:38:48.423Z,2.40
2022-12-26T11:41:36.637Z,2.40
2022-12-26T11:44:24.381Z,5.07
2022-12-26T11:46:57.132Z,4.15
2022-12-26T11:49:30.098Z,1.77
2022-12-26T11:52:03.108Z,1.52
2022-12-26T11:54:34.442Z,2.15
2022-12-26T11:57:05.494Z,3.17
2022-12-26T11:59:35.155Z,2.17
2022-12-26T12:02:19.731Z,1.67
2022-12-26T12:04:49.776Z,1.50
2022-12-26T12:07:26.230Z,5.43
2022-12-26T12:09:59.079Z,2.78
2022-12-26T12:12:31.853Z,2.17
2022-12-26T12:15:04.399Z,1.85
2022-12-26T12:17:38.767Z,2.72
2022-12-26T12:20:20.389Z,3.17
2022-12-26T12:23:05.410Z,3.67
2022-12-26T12:25:42.802Z,1.88
2022-12-26T12:28:20.127Z,5.15
2022-12-26T12:30:54.554Z,7.43
2022-12-26T12:33:29.921Z,2.88
2022-12-26T12:36:06.019Z,1.90
2022-12-26T12:38:44.700Z,1.50
2022-12-26T12:41:20.592Z,1.83
2022-12-26T12:43:52.411Z,1.67
2022-12-26T12:46:25.483Z,1.70
2022-12-26T12:49:05.093Z,2.05
2022-12-26T12:51:37.756Z,2.95
2022-12-26T12:54:21.742Z,5.72
2022-12-26T12:56:57.627Z,5.18
2022-12-26T12:59:32.075Z,2.22
2022-12-26T13:02:09.588Z,1.48
2022-12-26T13:04:42.007Z,3.85
2022-12-26T13:07:14.498Z,2.42
2022-12-26T13:09:49.163Z,2.17
2022-12-26T13:12:21.042Z,1.85
2022-12-26T13:14:52.101Z,2.33
2022-12-26T13:17:24.408Z,1.20
2022-12-26T13:20:01.757Z,1.58
2022-12-26T13:22:54.040Z,2.13
2022-12-26T13:25:24.981Z,1.90
2022-12-26T13:27:56.004Z,1.73
2022-12-26T13:30:25.701Z,4.40
2022-12-26T13:32:58.246Z,1.55
2022-12-26T13:35:42.849Z,1.02
2022-12-26T13:38:12.638Z,1.30
2022-12-26T13:40:48.251Z,1.50
2022-12-26T13:43:34.221Z,1.15
2022-12-26T13:46:03.851Z,1.38
2022-12-26T13:48:48.376Z,1.33
2022-12-26T13:51:32.826Z,8.88
2022-12-26T13:54:05.773Z,4.10
2022-12-26T13:56:54.876Z,1.20
2022-12-26T13:59:30.713Z,1.33
2022-12-26T14:02:07.690Z,1.45
2022-12-26T14:04:43.905Z,2.42
2022-12-26T14:07:21.873Z,1.73
2022-12-26T14:10:00.019Z,1.65
2022-12-26T14:12:47.534Z,5.57
2022-12-26T14:15:30.183Z,3.30
2022-12-26T14:18:06.769Z,1.58
2022-12-26T14:20:41.720Z,11.15
2022-12-26T14:23:22.306Z,2.13
2022-12-26T14:25:54.991Z,1.67
2022-12-26T14:28:26.609Z,1.98
2022-12-26T14:31:04.885Z,1.45
2022-12-26T14:33:38.388Z,2.10
2022-12-26T14:36:15.106Z,5.65
2022-12-26T14:38:48.796Z,1.95
2022-12-26T14:41:31.784Z,1.30
2022-12-26T14:44:11.774Z,2.35
2022-12-26T14:46:56.272Z,4.63
2022-12-26T14:49:39.640Z,1.98
2022-12-26T14:52:23.947Z,4.45
2022-12-26T14:54:54.001Z,4.53
2022-12-26T14:57:47.558Z,1.50
2022-12-26T15:00:31.337Z,3.08
2022-12-26T15:03:15.912Z,3.70
2022-12-26T15:05:51.025Z,2.70
2022-12-26T15:08:37.883Z,2.53
2022-12-26T15:11:25.379Z,2.05
2022-12-26T15:14:14.814Z,1.77
2022-12-26T15:16:50.043Z,1.52
2022-12-26T15:19:44.897Z,1.88
2022-12-26T15:22:34.757Z,3.55
2022-12-26T15:25:19.908Z,2.40
2022-12-26T15:28:04.928Z,2.35
2022-12-26T15:30:44.332Z,2.05
2022-12-26T15:33:17.878Z,3.33
2022-12-26T15:35:50.391Z,3.22
2022-12-26T15:38:26.643Z,3.15
2022-12-26T15:40:59.021Z,2.00
2022-12-26T15:43:38.077Z,2.78
2022-12-26T15:46:11.464Z,5.32
2022-12-26T15:48:51.444Z,2.83
2022-12-26T15:51:22.885Z,5.90
2022-12-26T15:54:03.357Z,2.30
2022-12-26T15:56:44.917Z,2.78
2022-12-26T15:59:41.588Z,1.60
2022-12-26T16:02:14.423Z,3.03
2022-12-26T16:04:46.611Z,2.47
2022-12-26T16:07:24.295Z,6.65
2022-12-26T16:09:57.322Z,2.17
2022-12-26T16:12:28.226Z,5.57
2022-12-26T16:15:04.987Z,2.65
2022-12-26T16:17:34.606Z,4.25
2022-12-26T16:20:38.974Z,2.22
2022-12-26T16:23:06.016Z,2.50
2022-12-26T16:25:38.248Z,3.10
2022-12-26T16:28:08.076Z,4.00
2022-12-26T16:30:39.322Z,2.47
2022-12-26T16:33:09.014Z,3.75
2022-12-26T16:35:40.710Z,2.33
2022-12-26T16:38:14.673Z,2.38
2022-12-26T16:40:48.220Z,3.78
2022-12-26T16:43:28.562Z,2.45
2022-12-26T16:46:00.253Z,1.73
2022-12-26T16:48:30.895Z,2.60
2022-12-26T16:51:01.475Z,3.45
2022-12-26T16:53:45.011Z,1.58
2022-12-26T16:56:28.098Z,1.30
2022-12-26T16:59:04.284Z,1.70
2022-12-26T17:01:35.191Z,1.42
2022-12-26T17:04:06.030Z,4.78
2022-12-26T17:06:36.682Z,2.35
2022-12-26T17:09:09.615Z,3.30
2022-12-26T17:11:43.247Z,21.98
2022-12-26T17:14:19.493Z,44.85
2022-12-26T17:16:49.117Z,3.72
2022-12-26T17:19:20.654Z,17.70
2022-12-26T17:22:21.231Z,6.20
2022-12-26T17:24:51.351Z,43.30
2022-12-26T17:27:24.174Z,79.95
2022-12-26T17:29:57.858Z,49.78
2022-12-26T17:32:29.888Z,14.30
2022-12-26T17:35:02.418Z,6.35
2022-12-26T17:37:32.004Z,6.47
2022-12-26T17:40:08.030Z,2.78
2022-12-26T17:42:47.142Z,2.40
2022-12-26T17:45:20.281Z,3.25
2022-12-26T17:47:49.791Z,2.30
2022-12-26T17:50:19.236Z,1.88
2022-12-26T17:52:48.868Z,2.13
2022-12-26T17:55:21.283Z,2.50
2022-12-26T17:57:53.587Z,2.50
2022-12-26T18:00:24.525Z,2.20
2022-12-26T18:02:54.253Z,2.63
2022-12-26T18:05:24.232Z,2.47
2022-12-26T18:07:54.568Z,2.60
2022-12-26T18:10:25.478Z,3.63
2022-12-26T18:12:58.052Z,2.63
2022-12-26T18:15:27.993Z,2.92
2022-12-26T18:17:57.729Z,3.10
2022-12-26T18:20:29.079Z,2.28
2022-12-26T18:22:58.776Z,1.98
2022-12-26T18:25:28.833Z,2.55
2022-12-26T18:28:02.101Z,3.95
2022-12-26T18:30:31.620Z,2.47
2022-12-26T18:33:01.084Z,3.67
2022-12-26T18:35:30.861Z,2.35
2022-12-26T18:38:00.365Z,3.67
2022-12-26T18:40:32.487Z,2.75
2022-12-26T18:43:05.148Z,7.03
2022-12-26T18:45:34.976Z,3.38
2022-12-26T18:48:05.181Z,2.13
2022-12-26T18:50:35.142Z,2.70
2022-12-26T18:53:04.877Z,1.63
2022-12-26T18:55:34.397Z,1.67
2022-12-26T18:58:06.509Z,1.00
2022-12-26T19:00:36.483Z,0.98
2022-12-26T19:03:06.270Z,1.25
2022-12-26T19:05:36.095Z,1.25
2022-12-26T19:08:05.665Z,1.17
2022-12-26T19:10:37.076Z,0.93
2022-12-26T19:13:09.259Z,1.40
2022-12-26T19:15:40.256Z,1.05
2022-12-26T19:18:09.824Z,1.77
2022-12-26T19:20:44.061Z,1.45
2022-12-26T19:23:14.034Z,2.28
2022-12-26T19:25:43.467Z,0.93
2022-12-26T19:28:15.832Z,8.35
2022-12-26T19:30:45.364Z,2.20
2022-12-26T19:33:14.824Z,1.75
2022-12-26T19:35:44.375Z,1.05
2022-12-26T19:38:13.823Z,1.75
2022-12-26T19:40:43.425Z,1.33
2022-12-26T19:43:15.541Z,0.88
2022-12-26T19:45:45.885Z,1.10
2022-12-26T19:48:15.414Z,1.02
2022-12-26T19:50:44.935Z,0.80
2022-12-26T19:53:14.426Z,0.70
2022-12-26T19:55:43.914Z,0.77
2022-12-26T19:58:16.038Z,0.95
2022-12-26T20:00:46.490Z,0.80
2022-12-26T20:03:16.130Z,0.95
2022-12-26T20:05:45.663Z,1.00
2022-12-26T20:08:16.144Z,1.10
2022-12-26T20:10:45.734Z,0.88
2022-12-26T20:13:17.938Z,0.82
2022-12-26T20:15:47.475Z,1.00
2022-12-26T20:18:17.659Z,5.10
2022-12-26T20:20:54.552Z,2.53
2022-12-26T20:23:24.211Z,1.35
2022-12-26T20:25:53.710Z,0.98
2022-12-26T20:28:26.476Z,1.50
2022-12-26T20:31:00.165Z,1.30
2022-12-26T20:33:30.156Z,1.73
2022-12-26T20:36:06.126Z,1.52
2022-12-26T20:38:35.989Z,1.55
2022-12-26T20:41:05.827Z,1.35
2022-12-26T20:43:38.426Z,1.30
2022-12-26T20:46:08.859Z,1.27
2022-12-26T20:48:38.956Z,1.77
2022-12-26T20:51:09.948Z,1.40
2022-12-26T20:53:39.602Z,1.50
2022-12-26T20:56:09.846Z,0.90
2022-12-26T20:58:41.972Z,1.00
2022-12-26T21:01:15.766Z,1.08
2022-12-26T21:03:45.664Z,0.93
2022-12-26T21:06:16.428Z,1.30
2022-12-26T21:08:47.170Z,2.25
2022-12-26T21:11:18.098Z,2.63
2022-12-26T21:13:51.239Z,3.53
2022-12-26T21:16:22.090Z,1.60
2022-12-26T21:18:52.103Z,3.05
2022-12-26T21:21:22.920Z,1.20
2022-12-26T21:23:52.699Z,1.02
2022-12-26T21:26:22.148Z,0.77
2022-12-26T21:28:56.680Z,1.27
2022-12-26T21:31:26.492Z,2.92
2022-12-26T21:33:57.612Z,0.93
2022-12-26T21:36:27.694Z,0.68
2022-12-26T21:38:58.716Z,0.95
2022-12-26T21:41:28.618Z,0.70
2022-12-26T21:44:00.701Z,1.27
2022-12-26T21:46:30.294Z,0.90
2022-12-26T21:49:00.890Z,0.77
2022-12-26T21:51:32.287Z,0.80
2022-12-26T21:54:14.084Z,0.95
2022-12-26T21:56:43.607Z,1.55
2022-12-26T21:59:34.167Z,0.70
2022-12-26T22:02:03.825Z,1.05
2022-12-26T22:04:30.773Z,0.80
2022-12-26T22:07:00.352Z,0.82
2022-12-26T22:09:29.864Z,0.90
2022-12-26T22:12:11.785Z,0.88
2022-12-26T22:14:43.905Z,0.80
2022-12-26T22:17:13.412Z,0.80
2022-12-26T22:19:42.918Z,1.10
2022-12-26T22:22:12.448Z,0.90
2022-12-26T22:24:41.935Z,0.60
2022-12-26T22:27:11.451Z,0.80
2022-12-26T22:29:40.904Z,0.70
2022-12-26T22:32:13.315Z,0.80
2022-12-26T22:34:42.993Z,0.80
2022-12-26T22:37:12.513Z,0.90
2022-12-26T22:39:41.994Z,2.53
2022-12-26T22:42:11.450Z,0.90
2022-12-26T22:44:41.698Z,0.75
2022-12-26T22:47:13.779Z,1.02
2022-12-26T22:49:43.335Z,2.72
2022-12-26T22:52:15.956Z,1.00
2022-12-26T22:54:46.280Z,1.70
2022-12-26T22:57:15.775Z,1.05
2022-12-26T23:02:37.506Z,1.25
2022-12-26T23:05:07.511Z,1.08
2022-12-26T23:07:37.337Z,0.80
2022-12-26T23:10:07.607Z,1.00
2022-12-26T23:12:46.495Z,1.70
2022-12-26T23:15:18.292Z,1.77
2022-12-26T23:18:04.731Z,1.13
2022-12-26T23:20:50.024Z,1.17
2022-12-26T23:23:19.897Z,0.95
2022-12-26T23:25:49.399Z,1.20
2022-12-26T23:28:31.375Z,1.23
2022-12-26T23:31:03.460Z,2.58
2022-12-26T23:33:36.034Z,1.48
2022-12-26T23:36:05.803Z,2.58
2022-12-26T23:38:35.294Z,0.80
2022-12-26T23:41:05.088Z,4.47
2022-12-26T23:43:35.286Z,2.10
2022-12-26T23:46:04.799Z,1.98
2022-12-26T23:48:36.903Z,1.60
2022-12-26T23:51:07.578Z,1.60
2022-12-26T23:53:37.786Z,1.60
2022-12-26T23:56:09.882Z,4.07
2022-12-26T23:58:40.298Z,2.53
